sensor_id;sensor_type;location;lat;lon;timestamp;pressure;altitude;pressure_sealevel;temperature;humidity
29433;BME280;16405;53.964;13.448;2022-10-22T00:00:12;100559.97;;;10.32;100.00
29433;BME280;16405;53.964;13.448;2022-10-22T00:02:38;100560.91;;;10.31;100.00
29433;BME280;16405;53.964;13.448;2022-10-22T00:05:09;100566.25;;;10.30;100.00
29433;BME280;16405;53.964;13.448;2022-10-22T00:07:35;100565.53;;;10.26;100.00
29433;BME280;16405;53.964;13.448;2022-10-22T00:10:03;100569.34;;;10.19;100.00
29433;BME280;16405;53.964;13.448;2022-10-22T00:12:29;100575.56;;;10.18;100.00
29433;BME280;16405;53.964;13.448;2022-10-22T00:15:04;100567.00;;;10.13;100.00
29433;BME280;16405;53.964;13.448;2022-10-22T00:17:30;100581.03;;;10.13;100.00
29433;BME280;16405;53.964;13.448;2022-10-22T00:19:55;100567.72;;;10.16;100.00
29433;BME280;16405;53.964;13.448;2022-10-22T00:22:21;100576.97;;;10.25;100.00
29433;BME280;16405;53.964;13.448;2022-10-22T00:24:53;100572.47;;;10.27;100.00
29433;BME280;16405;53.964;13.448;2022-10-22T00:27:19;100581.13;;;10.31;100.00
29433;BME280;16405;53.964;13.448;2022-10-22T00:29:47;100574.69;;;10.36;100.00
29433;BME280;16405;53.964;13.448;2022-10-22T00:32:13;100576.25;;;10.40;100.00
29433;BME280;16405;53.964;13.448;2022-10-22T00:34:45;100580.44;;;10.44;100.00
29433;BME280;16405;53.964;13.448;2022-10-22T00:37:10;100581.22;;;10.46;100.00
29433;BME280;16405;53.964;13.448;2022-10-22T00:39:36;100582.78;;;10.51;100.00
29433;BME280;16405;53.964;13.448;2022-10-22T00:42:02;100583.34;;;10.57;100.00
29433;BME280;16405;53.964;13.448;2022-10-22T00:45:18;100582.19;;;10.63;100.00
29433;BME280;16405;53.964;13.448;2022-10-22T00:48:04;100589.03;;;10.67;100.00
29433;BME280;16405;53.964;13.448;2022-10-22T00:51:04;100579.09;;;10.72;100.00
29433;BME280;16405;53.964;13.448;2022-10-22T00:53:44;100578.81;;;10.78;100.00
29433;BME280;16405;53.964;13.448;2022-10-22T00:56:11;100575.88;;;10.84;100.00
29433;BME280;16405;53.964;13.448;2022-10-22T00:58:48;100573.06;;;10.87;100.00
29433;BME280;16405;53.964;13.448;2022-10-22T01:01:19;100571.38;;;10.86;100.00
29433;BME280;16405;53.964;13.448;2022-10-22T01:03:49;100577.50;;;10.87;100.00
29433;BME280;16405;53.964;13.448;2022-10-22T01:06:32;100579.81;;;10.93;100.00
29433;BME280;16405;53.964;13.448;2022-10-22T01:12:27;100566.66;;;10.93;100.00
29433;BME280;16405;53.964;13.448;2022-10-22T01:15:23;100571.69;;;10.98;100.00
29433;BME280;16405;53.964;13.448;2022-10-22T01:18:31;100566.94;;;11.04;100.00
29433;BME280;16405;53.964;13.448;2022-10-22T01:21:33;100562.69;;;11.02;100.00
29433;BME280;16405;53.964;13.448;2022-10-22T01:27:14;100555.16;;;11.12;100.00
29433;BME280;16405;53.964;13.448;2022-10-22T01:30:07;100551.44;;;11.16;100.00
29433;BME280;16405;53.964;13.448;2022-10-22T01:32:52;100565.44;;;11.16;100.00
29433;BME280;16405;53.964;13.448;2022-10-22T01:35:26;100565.22;;;11.21;100.00
29433;BME280;16405;53.964;13.448;2022-10-22T01:38:04;100558.19;;;11.21;100.00
29433;BME280;16405;53.964;13.448;2022-10-22T01:40:37;100564.22;;;11.23;100.00
29433;BME280;16405;53.964;13.448;2022-10-22T01:43:07;100558.97;;;11.23;100.00
29433;BME280;16405;53.964;13.448;2022-10-22T01:46:11;100562.50;;;11.22;100.00
29433;BME280;16405;53.964;13.448;2022-10-22T01:52:42;100554.91;;;11.16;100.00
29433;BME280;16405;53.964;13.448;2022-10-22T01:55:23;100544.38;;;11.16;100.00
29433;BME280;16405;53.964;13.448;2022-10-22T02:00:33;100538.56;;;11.09;100.00
29433;BME280;16405;53.964;13.448;2022-10-22T02:03:44;100543.06;;;11.07;100.00
29433;BME280;16405;53.964;13.448;2022-10-22T02:06:19;100528.81;;;10.94;100.00
29433;BME280;16405;53.964;13.448;2022-10-22T02:08:46;100533.25;;;10.94;100.00
29433;BME280;16405;53.964;13.448;2022-10-22T02:11:18;100539.59;;;10.90;100.00
29433;BME280;16405;53.964;13.448;2022-10-22T02:14:00;100546.97;;;10.83;100.00
29433;BME280;16405;53.964;13.448;2022-10-22T02:16:34;100546.34;;;10.78;100.00
29433;BME280;16405;53.964;13.448;2022-10-22T02:21:49;100560.72;;;10.71;100.00
29433;BME280;16405;53.964;13.448;2022-10-22T02:24:23;100569.41;;;10.73;100.00
29433;BME280;16405;53.964;13.448;2022-10-22T02:30:17;100563.47;;;10.69;100.00
29433;BME280;16405;53.964;13.448;2022-10-22T02:33:07;100562.69;;;10.67;100.00
29433;BME280;16405;53.964;13.448;2022-10-22T02:35:36;100565.22;;;10.68;100.00
29433;BME280;16405;53.964;13.448;2022-10-22T02:38:04;100573.22;;;10.67;100.00
29433;BME280;16405;53.964;13.448;2022-10-22T02:40:37;100587.31;;;10.66;100.00
29433;BME280;16405;53.964;13.448;2022-10-22T02:43:04;100597.69;;;10.69;100.00
29433;BME280;16405;53.964;13.448;2022-10-22T02:45:31;100599.16;;;10.75;100.00
29433;BME280;16405;53.964;13.448;2022-10-22T02:47:58;100598.78;;;10.82;100.00
29433;BME280;16405;53.964;13.448;2022-10-22T02:50:28;100599.56;;;10.84;100.00
29433;BME280;16405;53.964;13.448;2022-10-22T02:52:54;100603.06;;;10.85;100.00
29433;BME280;16405;53.964;13.448;2022-10-22T02:55:20;100595.28;;;10.82;100.00
29433;BME280;16405;53.964;13.448;2022-10-22T02:57:46;100588.16;;;10.84;100.00
29433;BME280;16405;53.964;13.448;2022-10-22T03:00:12;100581.19;;;10.83;100.00
29433;BME280;16405;53.964;13.448;2022-10-22T03:02:38;100572.53;;;10.81;100.00
29433;BME280;16405;53.964;13.448;2022-10-22T03:05:12;100573.78;;;10.74;100.00
29433;BME280;16405;53.964;13.448;2022-10-22T03:07:38;100570.66;;;10.65;100.00
29433;BME280;16405;53.964;13.448;2022-10-22T03:10:04;100568.94;;;10.64;100.00
29433;BME280;16405;53.964;13.448;2022-10-22T03:12:30;100581.31;;;10.62;100.00
29433;BME280;16405;53.964;13.448;2022-10-22T03:15:05;100586.59;;;10.62;100.00
29433;BME280;16405;53.964;13.448;2022-10-22T03:17:31;100584.06;;;10.61;100.00
29433;BME280;16405;53.964;13.448;2022-10-22T03:19:57;100583.03;;;10.63;100.00
29433;BME280;16405;53.964;13.448;2022-10-22T03:22:30;100593.34;;;10.68;100.00
29433;BME280;16405;53.964;13.448;2022-10-22T03:25:00;100583.44;;;10.73;100.00
29433;BME280;16405;53.964;13.448;2022-10-22T03:27:36;100575.41;;;10.76;100.00
29433;BME280;16405;53.964;13.448;2022-10-22T03:30:04;100569.28;;;10.76;100.00
29433;BME280;16405;53.964;13.448;2022-10-22T03:32:30;100567.19;;;10.82;100.00
29433;BME280;16405;53.964;13.448;2022-10-22T03:35:03;100560.91;;;10.85;100.00
29433;BME280;16405;53.964;13.448;2022-10-22T03:37:30;100574.94;;;10.85;100.00
29433;BME280;16405;53.964;13.448;2022-10-22T03:39:57;100584.31;;;10.91;100.00
29433;BME280;16405;53.964;13.448;2022-10-22T03:42:23;100583.13;;;10.97;100.00
29433;BME280;16405;53.964;13.448;2022-10-22T03:44:56;100583.06;;;10.98;100.00
29433;BME280;16405;53.964;13.448;2022-10-22T03:47:22;100588.94;;;11.03;100.00
29433;BME280;16405;53.964;13.448;2022-10-22T03:49:51;100592.44;;;11.04;100.00
29433;BME280;16405;53.964;13.448;2022-10-22T03:52:20;100581.75;;;11.07;100.00
29433;BME280;16405;53.964;13.448;2022-10-22T03:54:46;100594.78;;;11.10;100.00
29433;BME280;16405;53.964;13.448;2022-10-22T03:57:12;100584.00;;;11.15;100.00
29433;BME280;16405;53.964;13.448;2022-10-22T03:59:43;100584.13;;;11.12;100.00
29433;BME280;16405;53.964;13.448;2022-10-22T04:02:16;100593.53;;;11.17;100.00
29433;BME280;16405;53.964;13.448;2022-10-22T04:04:42;100602.22;;;11.19;100.00
29433;BME280;16405;53.964;13.448;2022-10-22T04:07:08;100598.50;;;11.23;100.00
29433;BME280;16405;53.964;13.448;2022-10-22T04:09:34;100609.81;;;11.25;100.00
29433;BME280;16405;53.964;13.448;2022-10-22T04:12:06;100602.09;;;11.21;100.00
29433;BME280;16405;53.964;13.448;2022-10-22T04:14:34;100610.72;;;11.24;100.00
29433;BME280;16405;53.964;13.448;2022-10-22T04:16:59;100608.09;;;11.24;100.00
29433;BME280;16405;53.964;13.448;2022-10-22T04:19:25;100606.22;;;11.26;100.00
29433;BME280;16405;53.964;13.448;2022-10-22T04:21:51;100601.72;;;11.28;100.00
29433;BME280;16405;53.964;13.448;2022-10-22T04:24:20;100600.56;;;11.34;100.00
29433;BME280;16405;53.964;13.448;2022-10-22T04:26:45;100596.06;;;11.36;100.00
29433;BME280;16405;53.964;13.448;2022-10-22T04:29:11;100596.75;;;11.40;100.00
29433;BME280;16405;53.964;13.448;2022-10-22T04:31:37;100593.25;;;11.39;100.00
29433;BME280;16405;53.964;13.448;2022-10-22T04:34:03;100597.38;;;11.45;100.00
29433;BME280;16405;53.964;13.448;2022-10-22T04:36:28;100603.56;;;11.44;100.00
29433;BME280;16405;53.964;13.448;2022-10-22T04:38:59;100611.16;;;11.50;100.00
29433;BME280;16405;53.964;13.448;2022-10-22T04:41:32;100601.47;;;11.50;100.00
29433;BME280;16405;53.964;13.448;2022-10-22T04:43:58;100599.66;;;11.51;100.00
29433;BME280;16405;53.964;13.448;2022-10-22T04:46:32;100600.44;;;11.53;100.00
29433;BME280;16405;53.964;13.448;2022-10-22T04:48:59;100599.44;;;11.56;100.00
29433;BME280;16405;53.964;13.448;2022-10-22T04:51:26;100608.97;;;11.58;100.00
29433;BME280;16405;53.964;13.448;2022-10-22T04:53:54;100602.50;;;11.64;100.00
29433;BME280;16405;53.964;13.448;2022-10-22T04:56:28;100592.84;;;11.64;100.00
29433;BME280;16405;53.964;13.448;2022-10-22T04:59:19;100600.50;;;11.69;100.00
29433;BME280;16405;53.964;13.448;2022-10-22T05:01:45;100601.16;;;11.73;100.00
29433;BME280;16405;53.964;13.448;2022-10-22T05:04:14;100605.47;;;11.75;100.00
29433;BME280;16405;53.964;13.448;2022-10-22T05:06:44;100604.50;;;11.76;100.00
29433;BME280;16405;53.964;13.448;2022-10-22T05:09:30;100615.00;;;11.78;100.00
29433;BME280;16405;53.964;13.448;2022-10-22T05:11:56;100609.72;;;11.78;100.00
29433;BME280;16405;53.964;13.448;2022-10-22T05:14:31;100616.53;;;11.82;100.00
29433;BME280;16405;53.964;13.448;2022-10-22T05:16:57;100621.69;;;11.83;100.00
29433;BME280;16405;53.964;13.448;2022-10-22T05:19:26;100624.16;;;11.88;100.00
29433;BME280;16405;53.964;13.448;2022-10-22T05:22:01;100624.16;;;11.88;100.00
29433;BME280;16405;53.964;13.448;2022-10-22T05:24:29;100628.47;;;11.89;100.00
29433;BME280;16405;53.964;13.448;2022-10-22T05:26:57;100632.72;;;11.92;100.00
29433;BME280;16405;53.964;13.448;2022-10-22T05:29:26;100624.75;;;11.93;100.00
29433;BME280;16405;53.964;13.448;2022-10-22T05:31:52;100622.81;;;11.97;100.00
29433;BME280;16405;53.964;13.448;2022-10-22T05:34:18;100619.16;;;11.99;100.00
29433;BME280;16405;53.964;13.448;2022-10-22T05:36:44;100618.13;;;12.02;100.00
29433;BME280;16405;53.964;13.448;2022-10-22T05:39:13;100621.44;;;12.05;100.00
29433;BME280;16405;53.964;13.448;2022-10-22T05:41:42;100625.63;;;12.09;100.00
29433;BME280;16405;53.964;13.448;2022-10-22T05:44:10;100628.84;;;12.15;100.00
29433;BME280;16405;53.964;13.448;2022-10-22T05:46:37;100625.97;;;12.19;100.00
29433;BME280;16405;53.964;13.448;2022-10-22T05:49:05;100625.88;;;12.21;100.00
29433;BME280;16405;53.964;13.448;2022-10-22T05:51:36;100627.50;;;12.23;100.00
29433;BME280;16405;53.964;13.448;2022-10-22T05:54:06;100621.13;;;12.27;100.00
29433;BME280;16405;53.964;13.448;2022-10-22T05:56:33;100613.00;;;12.30;100.00
29433;BME280;16405;53.964;13.448;2022-10-22T05:59:02;100614.41;;;12.38;100.00
29433;BME280;16405;53.964;13.448;2022-10-22T06:01:31;100614.41;;;12.38;100.00
29433;BME280;16405;53.964;13.448;2022-10-22T06:04:05;100611.50;;;12.42;100.00
29433;BME280;16405;53.964;13.448;2022-10-22T06:06:50;100616.78;;;12.42;100.00
29433;BME280;16405;53.964;13.448;2022-10-22T06:11:47;100619.06;;;12.48;100.00
29433;BME280;16405;53.964;13.448;2022-10-22T06:14:17;100623.34;;;12.51;100.00
29433;BME280;16405;53.964;13.448;2022-10-22T06:16:44;100632.78;;;12.55;100.00
29433;BME280;16405;53.964;13.448;2022-10-22T06:19:19;100638.72;;;12.59;100.00
29433;BME280;16405;53.964;13.448;2022-10-22T06:21:46;100641.38;;;12.59;100.00
29433;BME280;16405;53.964;13.448;2022-10-22T06:24:12;100637.63;;;12.63;100.00
29433;BME280;16405;53.964;13.448;2022-10-22T06:26:38;100646.94;;;12.70;100.00
29433;BME280;16405;53.964;13.448;2022-10-22T06:29:10;100642.47;;;12.70;100.00
29433;BME280;16405;53.964;13.448;2022-10-22T06:31:35;100644.84;;;12.75;100.00
29433;BME280;16405;53.964;13.448;2022-10-22T06:34:15;100643.75;;;12.79;100.00
29433;BME280;16405;53.964;13.448;2022-10-22T06:36:44;100645.34;;;12.82;100.00
29433;BME280;16405;53.964;13.448;2022-10-22T06:39:16;100644.31;;;12.84;100.00
29433;BME280;16405;53.964;13.448;2022-10-22T06:41:42;100653.97;;;12.85;100.00
29433;BME280;16405;53.964;13.448;2022-10-22T06:44:17;100656.34;;;12.90;100.00
29433;BME280;16405;53.964;13.448;2022-10-22T06:46:49;100664.19;;;12.91;100.00
29433;BME280;16405;53.964;13.448;2022-10-22T06:49:17;100669.47;;;12.91;100.00
29433;BME280;16405;53.964;13.448;2022-10-22T06:51:53;100663.06;;;12.96;100.00
29433;BME280;16405;53.964;13.448;2022-10-22T06:54:20;100662.91;;;12.99;100.00
29433;BME280;16405;53.964;13.448;2022-10-22T06:56:54;100662.69;;;13.02;100.00
29433;BME280;16405;53.964;13.448;2022-10-22T06:59:20;100676.53;;;13.07;100.00
29433;BME280;16405;53.964;13.448;2022-10-22T07:01:45;100672.75;;;13.11;100.00
29433;BME280;16405;53.964;13.448;2022-10-22T07:04:23;100675.97;;;13.16;100.00
29433;BME280;16405;53.964;13.448;2022-10-22T07:06:54;100684.50;;;13.21;100.00
29433;BME280;16405;53.964;13.448;2022-10-22T07:09:30;100681.69;;;13.24;100.00
29433;BME280;16405;53.964;13.448;2022-10-22T07:11:55;100689.41;;;13.27;100.00
29433;BME280;16405;53.964;13.448;2022-10-22T07:14:33;100692.59;;;13.34;100.00
29433;BME280;16405;53.964;13.448;2022-10-22T07:16:59;100688.81;;;13.38;100.00
29433;BME280;16405;53.964;13.448;2022-10-22T07:19:36;100690.34;;;13.42;100.00
29433;BME280;16405;53.964;13.448;2022-10-22T07:22:02;100693.69;;;13.46;100.00
29433;BME280;16405;53.964;13.448;2022-10-22T07:24:28;100692.63;;;13.48;100.00
29433;BME280;16405;53.964;13.448;2022-10-22T07:26:54;100693.31;;;13.52;100.00
29433;BME280;16405;53.964;13.448;2022-10-22T07:29:20;100698.41;;;13.55;100.00
29433;BME280;16405;53.964;13.448;2022-10-22T07:31:53;100703.50;;;13.58;100.00
29433;BME280;16405;53.964;13.448;2022-10-22T07:34:19;100697.28;;;13.59;100.00
29433;BME280;16405;53.964;13.448;2022-10-22T07:36:45;100699.75;;;13.62;100.00
29433;BME280;16405;53.964;13.448;2022-10-22T07:39:11;100702.22;;;13.65;100.00
29433;BME280;16405;53.964;13.448;2022-10-22T07:41:42;100701.25;;;13.66;100.00
29433;BME280;16405;53.964;13.448;2022-10-22T07:44:08;100708.28;;;13.67;100.00
29433;BME280;16405;53.964;13.448;2022-10-22T07:46:34;100708.91;;;13.71;100.00
29433;BME280;16405;53.964;13.448;2022-10-22T07:49:00;100718.47;;;13.73;100.00
29433;BME280;16405;53.964;13.448;2022-10-22T07:51:26;100728.59;;;13.81;100.00
29433;BME280;16405;53.964;13.448;2022-10-22T07:53:57;100715.00;;;13.87;100.00
29433;BME280;16405;53.964;13.448;2022-10-22T07:56:25;100722.38;;;13.97;100.00
29433;BME280;16405;53.964;13.448;2022-10-22T07:58:54;100722.84;;;14.03;100.00
29433;BME280;16405;53.964;13.448;2022-10-22T08:01:24;100726.66;;;14.13;100.00
29433;BME280;16405;53.964;13.448;2022-10-22T08:03:51;100733.09;;;14.24;100.00
29433;BME280;16405;53.964;13.448;2022-10-22T08:06:17;100727.00;;;14.36;100.00
29433;BME280;16405;53.964;13.448;2022-10-22T08:08:43;100729.66;;;14.50;100.00
29433;BME280;16405;53.964;13.448;2022-10-22T08:11:13;100732.31;;;14.65;100.00
29433;BME280;16405;53.964;13.448;2022-10-22T08:13:41;100734.28;;;14.75;100.00
29433;BME280;16405;53.964;13.448;2022-10-22T08:16:07;100734.63;;;14.84;100.00
29433;BME280;16405;53.964;13.448;2022-10-22T08:18:33;100743.06;;;14.90;100.00
29433;BME280;16405;53.964;13.448;2022-10-22T08:20:59;100735.66;;;14.95;100.00
29433;BME280;16405;53.964;13.448;2022-10-22T08:23:25;100744.16;;;15.01;100.00
29433;BME280;16405;53.964;13.448;2022-10-22T08:25:51;100749.81;;;15.09;100.00
29433;BME280;16405;53.964;13.448;2022-10-22T08:28:24;100750.16;;;15.17;100.00
29433;BME280;16405;53.964;13.448;2022-10-22T08:30:53;100747.00;;;15.25;100.00
29433;BME280;16405;53.964;13.448;2022-10-22T08:33:26;100747.66;;;15.28;100.00
29433;BME280;16405;53.964;13.448;2022-10-22T08:35:52;100748.31;;;15.32;100.00
29433;BME280;16405;53.964;13.448;2022-10-22T08:38:18;100741.94;;;15.34;100.00
29433;BME280;16405;53.964;13.448;2022-10-22T08:49:45;100760.03;;;15.55;100.00
29433;BME280;16405;53.964;13.448;2022-10-22T08:52:19;100753.56;;;15.59;100.00
29433;BME280;16405;53.964;13.448;2022-10-22T08:54:59;100763.03;;;15.63;100.00
29433;BME280;16405;53.964;13.448;2022-10-22T09:00:58;100762.19;;;15.63;100.00
29433;BME280;16405;53.964;13.448;2022-10-22T09:03:56;100767.50;;;15.63;100.00
29433;BME280;16405;53.964;13.448;2022-10-22T09:06:32;100773.63;;;15.63;100.00
29433;BME280;16405;53.964;13.448;2022-10-22T09:09:18;100771.94;;;15.62;100.00
29433;BME280;16405;53.964;13.448;2022-10-22T09:11:51;100768.75;;;15.57;100.00
29433;BME280;16405;53.964;13.448;2022-10-22T09:14:23;100781.16;;;15.56;100.00
29433;BME280;16405;53.964;13.448;2022-10-22T09:26:25;100787.03;;;15.62;100.00
29433;BME280;16405;53.964;13.448;2022-10-22T09:28:54;100787.03;;;15.62;100.00
29433;BME280;16405;53.964;13.448;2022-10-22T09:31:29;100784.91;;;15.67;100.00
29433;BME280;16405;53.964;13.448;2022-10-22T09:34:01;100788.78;;;15.75;100.00
29433;BME280;16405;53.964;13.448;2022-10-22T09:36:34;100788.16;;;15.85;100.00
29433;BME280;16405;53.964;13.448;2022-10-22T09:39:38;100794.47;;;15.96;100.00
29433;BME280;16405;53.964;13.448;2022-10-22T09:42:06;100792.22;;;16.03;100.00
29433;BME280;16405;53.964;13.448;2022-10-22T09:44:34;100798.59;;;16.01;100.00
29433;BME280;16405;53.964;13.448;2022-10-22T09:50:45;100798.16;;;16.07;100.00
29433;BME280;16405;53.964;13.448;2022-10-22T09:53:24;100805.28;;;16.06;100.00
29433;BME280;16405;53.964;13.448;2022-10-22T09:55:58;100812.00;;;16.12;100.00
29433;BME280;16405;53.964;13.448;2022-10-22T09:58:44;100809.88;;;16.17;100.00
29433;BME280;16405;53.964;13.448;2022-10-22T10:01:34;100811.78;;;16.28;100.00
29433;BME280;16405;53.964;13.448;2022-10-22T10:04:14;100802.44;;;16.35;100.00
29433;BME280;16405;53.964;13.448;2022-10-22T10:06:52;100811.47;;;16.45;100.00
29433;BME280;16405;53.964;13.448;2022-10-22T10:09:28;100810.38;;;16.60;100.00
29433;BME280;16405;53.964;13.448;2022-10-22T10:16:32;100818.66;;;16.94;100.00
29433;BME280;16405;53.964;13.448;2022-10-22T10:18:56;100822.91;;;16.97;100.00
29433;BME280;16405;53.964;13.448;2022-10-22T10:25:41;100831.91;;;17.07;100.00
29433;BME280;16405;53.964;13.448;2022-10-22T10:34:30;100830.47;;;16.90;100.00
29433;BME280;16405;53.964;13.448;2022-10-22T10:37:25;100833.34;;;16.87;100.00
29433;BME280;16405;53.964;13.448;2022-10-22T10:40:10;100822.91;;;16.84;100.00
29433;BME280;16405;53.964;13.448;2022-10-22T10:49:18;100831.41;;;17.02;100.00
29433;BME280;16405;53.964;13.448;2022-10-22T10:55:00;100837.22;;;17.20;100.00
29433;BME280;16405;53.964;13.448;2022-10-22T11:01:01;100844.97;;;17.47;100.00
29433;BME280;16405;53.964;13.448;2022-10-22T11:06:18;100852.50;;;17.53;100.00
29433;BME280;16405;53.964;13.448;2022-10-22T11:09:33;100852.91;;;17.60;100.00
29433;BME280;16405;53.964;13.448;2022-10-22T11:12:16;100856.28;;;17.62;100.00
29433;BME280;16405;53.964;13.448;2022-10-22T11:15:15;100864.19;;;17.63;100.00
29433;BME280;16405;53.964;13.448;2022-10-22T11:17:50;100856.94;;;17.66;100.00
29433;BME280;16405;53.964;13.448;2022-10-22T11:23:10;100858.22;;;17.60;100.00
29433;BME280;16405;53.964;13.448;2022-10-22T11:25:50;100853.03;;;17.58;100.00
29433;BME280;16405;53.964;13.448;2022-10-22T11:28:36;100846.28;;;17.41;100.00
29433;BME280;16405;53.964;13.448;2022-10-22T11:31:16;100849.66;;;17.19;100.00
29433;BME280;16405;53.964;13.448;2022-10-22T11:37:02;100853.75;;;16.99;100.00
29433;BME280;16405;53.964;13.448;2022-10-22T11:40:13;100849.53;;;17.21;100.00
29433;BME280;16405;53.964;13.448;2022-10-22T11:46:07;100850.91;;;17.75;100.00
29433;BME280;16405;53.964;13.448;2022-10-22T11:49:54;100853.97;;;17.81;100.00
29433;BME280;16405;53.964;13.448;2022-10-22T11:55:26;100853.88;;;17.83;100.00
29433;BME280;16405;53.964;13.448;2022-10-22T11:57:48;100861.91;;;17.94;100.00
29433;BME280;16405;53.964;13.448;2022-10-22T12:00:45;100858.66;;;17.91;100.00
29433;BME280;16405;53.964;13.448;2022-10-22T12:06:23;100848.22;;;18.23;100.00
29433;BME280;16405;53.964;13.448;2022-10-22T12:11:26;100857.22;;;18.44;99.32
29433;BME280;16405;53.964;13.448;2022-10-22T12:17:14;100845.44;;;18.70;95.84
29433;BME280;16405;53.964;13.448;2022-10-22T12:20:10;100856.38;;;18.55;92.58
29433;BME280;16405;53.964;13.448;2022-10-22T12:22:37;100846.66;;;18.54;92.76
29433;BME280;16405;53.964;13.448;2022-10-22T12:25:29;100846.19;;;18.60;93.45
29433;BME280;16405;53.964;13.448;2022-10-22T12:27:58;100848.22;;;18.68;93.61
29433;BME280;16405;53.964;13.448;2022-10-22T12:30:31;100844.75;;;18.79;93.69
29433;BME280;16405;53.964;13.448;2022-10-22T12:33:03;100844.03;;;18.77;94.10
29433;BME280;16405;53.964;13.448;2022-10-22T12:35:34;100852.16;;;18.87;92.41
29433;BME280;16405;53.964;13.448;2022-10-22T12:38:14;100851.91;;;18.90;92.24
29433;BME280;16405;53.964;13.448;2022-10-22T12:40:41;100854.22;;;18.83;92.18
29433;BME280;16405;53.964;13.448;2022-10-22T12:43:23;100849.97;;;18.80;91.09
29433;BME280;16405;53.964;13.448;2022-10-22T12:45:50;100847.88;;;18.61;91.58
29433;BME280;16405;53.964;13.448;2022-10-22T12:51:18;100856.59;;;18.52;92.65
29433;BME280;16405;53.964;13.448;2022-10-22T12:53:50;100862.78;;;18.53;92.34
29433;BME280;16405;53.964;13.448;2022-10-22T12:56:24;100864.38;;;18.55;92.48
29433;BME280;16405;53.964;13.448;2022-10-22T12:58:57;100860.72;;;18.56;93.44
29433;BME280;16405;53.964;13.448;2022-10-22T13:01:33;100866.16;;;18.43;91.81
29433;BME280;16405;53.964;13.448;2022-10-22T13:04:20;100864.69;;;18.51;91.79
29433;BME280;16405;53.964;13.448;2022-10-22T13:07:02;100864.84;;;18.49;92.36
29433;BME280;16405;53.964;13.448;2022-10-22T13:12:07;100867.03;;;18.67;91.12
29433;BME280;16405;53.964;13.448;2022-10-22T13:14:42;100862.91;;;18.74;91.13
29433;BME280;16405;53.964;13.448;2022-10-22T13:17:20;100864.47;;;18.54;89.28
29433;BME280;16405;53.964;13.448;2022-10-22T13:20:13;100864.38;;;18.55;90.62
29433;BME280;16405;53.964;13.448;2022-10-22T13:22:59;100857.53;;;18.40;90.88
29433;BME280;16405;53.964;13.448;2022-10-22T13:25:37;100860.94;;;18.31;91.25
29433;BME280;16405;53.964;13.448;2022-10-22T13:28:18;100859.91;;;18.20;91.73
29433;BME280;16405;53.964;13.448;2022-10-22T13:31:01;100862.28;;;18.01;91.81
29433;BME280;16405;53.964;13.448;2022-10-22T13:33:42;100856.72;;;17.93;92.50
29433;BME280;16405;53.964;13.448;2022-10-22T13:36:13;100858.75;;;17.89;93.41
29433;BME280;16405;53.964;13.448;2022-10-22T13:38:41;100861.91;;;17.94;93.79
29433;BME280;16405;53.964;13.448;2022-10-22T13:41:28;100858.41;;;17.94;93.98
29433;BME280;16405;53.964;13.448;2022-10-22T13:43:58;100858.16;;;17.97;93.47
29433;BME280;16405;53.964;13.448;2022-10-22T13:46:25;100869.91;;;17.94;93.72
29433;BME280;16405;53.964;13.448;2022-10-22T13:48:55;100866.84;;;17.88;93.32
29433;BME280;16405;53.964;13.448;2022-10-22T13:51:28;100859.84;;;17.87;93.46
29433;BME280;16405;53.964;13.448;2022-10-22T13:53:59;100864.53;;;17.83;93.50
29433;BME280;16405;53.964;13.448;2022-10-22T13:56:26;100864.63;;;17.81;93.88
29433;BME280;16405;53.964;13.448;2022-10-22T13:58:51;100869.09;;;17.81;94.10
29433;BME280;16405;53.964;13.448;2022-10-22T14:01:26;100877.00;;;17.82;94.54
29433;BME280;16405;53.964;13.448;2022-10-22T14:03:56;100877.41;;;17.89;94.68
29433;BME280;16405;53.964;13.448;2022-10-22T14:06:25;100873.09;;;17.99;94.84
29433;BME280;16405;53.964;13.448;2022-10-22T14:08:58;100876.72;;;18.10;94.51
29433;BME280;16405;53.964;13.448;2022-10-22T14:11:25;100867.44;;;18.15;94.33
29433;BME280;16405;53.964;13.448;2022-10-22T14:13:55;100865.97;;;18.11;94.33
29433;BME280;16405;53.964;13.448;2022-10-22T14:16:25;100870.06;;;18.04;93.45
29433;BME280;16405;53.964;13.448;2022-10-22T14:18:52;100863.50;;;17.97;92.98
29433;BME280;16405;53.964;13.448;2022-10-22T14:21:19;100873.50;;;17.82;93.39
29433;BME280;16405;53.964;13.448;2022-10-22T14:23:50;100869.56;;;17.75;93.25
29433;BME280;16405;53.964;13.448;2022-10-22T14:26:26;100870.41;;;17.75;93.95
29433;BME280;16405;53.964;13.448;2022-10-22T14:28:53;100874.38;;;17.70;94.42
29433;BME280;16405;53.964;13.448;2022-10-22T14:31:19;100877.16;;;17.68;95.27
29433;BME280;16405;53.964;13.448;2022-10-22T14:33:45;100881.38;;;17.71;95.35
29433;BME280;16405;53.964;13.448;2022-10-22T14:36:13;100872.56;;;17.70;95.16
29433;BME280;16405;53.964;13.448;2022-10-22T14:38:41;100873.63;;;17.68;94.93
29433;BME280;16405;53.964;13.448;2022-10-22T14:41:22;100880.78;;;17.67;94.54
29433;BME280;16405;53.964;13.448;2022-10-22T14:43:48;100877.59;;;17.62;94.43
29433;BME280;16405;53.964;13.448;2022-10-22T14:46:15;100875.41;;;17.56;94.09